Time;durP1;ratioP1;P1;durP2;ratioP2;P2;SDS_P1;SDS_P2;PMS_P1;PMS_P2;Temp;Humidity;BMP_temperature;BMP_pressure;BME280_temperature;BME280_humidity;BME280_pressure;Samples;Min_cycle;Max_cycle;Signal;HPM_P1;HPM_P2
2023/06/05 00:02:02;;;;;;;4.63;2.60;;;;;;;;;;5053799;28;20260;-32
2023/06/05 00:04:29;;;;;;;2.67;2.13;;;;;;;;;;5061324;28;20215;-33
2023/06/05 00:06:57;;;;;;;5.10;2.77;;;;;;;;;;5051134;28;20448;-34
2023/06/05 00:09:24;;;;;;;3.13;2.40;;;;;;;;;;5051601;28;20232;-31
2023/06/05 00:11:51;;;;;;;2.60;2.40;;;;;;;;;;5040656;28;20212;-36
2023/06/05 00:14:19;;;;;;;2.73;2.37;;;;;;;;;;5051035;28;20678;-35
2023/06/05 00:16:46;;;;;;;2.70;2.50;;;;;;;;;;5057279;28;20597;-35
2023/06/05 00:19:14;;;;;;;2.83;2.50;;;;;;;;;;5056953;28;20213;-34
2023/06/05 00:21:41;;;;;;;2.17;1.97;;;;;;;;;;5052146;28;20203;-31
2023/06/05 00:24:08;;;;;;;6.27;2.63;;;;;;;;;;5050172;28;20574;-36
2023/06/05 00:26:35;;;;;;;2.73;2.53;;;;;;;;;;5039347;28;20236;-32
2023/06/05 00:29:02;;;;;;;3.40;2.57;;;;;;;;;;5048449;28;20208;-33
2023/06/05 00:31:32;;;;;;;4.30;2.40;;;;;;;;;;5060355;28;20220;-34
2023/06/05 00:33:59;;;;;;;2.60;2.40;;;;;;;;;;5049963;28;20231;-33
2023/06/05 00:36:27;;;;;;;2.87;2.37;;;;;;;;;;5062152;28;20223;-34
2023/06/05 00:38:55;;;;;;;2.60;2.40;;;;;;;;;;5050852;28;20209;-32
2023/06/05 00:41:22;;;;;;;5.10;2.40;;;;;;;;;;5041287;28;20203;-32
2023/06/05 00:43:49;;;;;;;2.40;2.20;;;;;;;;;;5049824;28;20294;-33
2023/06/05 00:46:17;;;;;;;3.03;2.30;;;;;;;;;;5059989;28;20221;-33
2023/06/05 00:48:48;;;;;;;3.23;2.37;;;;;;;;;;5052965;28;20271;-35
2023/06/05 00:51:15;;;;;;;2.77;2.57;;;;;;;;;;5063465;28;20227;-35
2023/06/05 00:53:43;;;;;;;2.60;2.40;;;;;;;;;;5051051;28;20291;-33
2023/06/05 00:56:11;;;;;;;3.87;2.57;;;;;;;;;;5044801;28;20244;-32
2023/06/05 00:58:38;;;;;;;3.47;2.37;;;;;;;;;;5050041;28;20243;-35
2023/06/05 01:01:06;;;;;;;2.53;2.17;;;;;;;;;;5051556;28;20205;-29
2023/06/05 01:03:34;;;;;;;3.00;2.57;;;;;;;;;;5045615;28;20216;-34
2023/06/05 01:06:04;;;;;;;5.07;2.70;;;;;;;;;;5062099;28;20277;-33
2023/06/05 01:08:38;;;;;;;2.50;2.30;;;;;;;;;;5054037;28;20212;-33
2023/06/05 01:11:06;;;;;;;3.00;2.60;;;;;;;;;;5050436;28;20227;-32
2023/06/05 01:13:36;;;;;;;2.40;2.20;;;;;;;;;;5069497;28;20210;-33
2023/06/05 01:16:04;;;;;;;2.70;2.50;;;;;;;;;;5052978;28;20232;-33
2023/06/05 01:18:32;;;;;;;3.13;2.30;;;;;;;;;;5046052;28;20274;-35
2023/06/05 01:21:03;;;;;;;2.30;2.10;;;;;;;;;;5053918;28;20265;-36
2023/06/05 01:23:33;;;;;;;2.17;2.07;;;;;;;;;;5054183;28;20215;-35
2023/06/05 01:26:04;;;;;;;3.37;1.93;;;;;;;;;;5049794;28;20259;-34
2023/06/05 01:28:31;;;;;;;1.80;1.70;;;;;;;;;;5067390;28;20203;-35
2023/06/05 01:31:03;;;;;;;4.13;2.60;;;;;;;;;;5054603;28;20228;-36
2023/06/05 01:33:33;;;;;;;2.60;2.40;;;;;;;;;;5053874;28;20241;-32
2023/06/05 01:36:04;;;;;;;2.30;2.10;;;;;;;;;;5054182;28;20250;-34
2023/06/05 01:38:34;;;;;;;3.17;2.87;;;;;;;;;;5054564;28;20191;-34
2023/06/05 01:41:03;;;;;;;2.90;2.60;;;;;;;;;;5050479;28;20202;-34
2023/06/05 01:43:30;;;;;;;2.77;2.20;;;;;;;;;;5063473;28;20301;-33
2023/06/05 01:45:58;;;;;;;2.60;2.40;;;;;;;;;;5067734;28;20218;-31
2023/06/05 01:48:27;;;;;;;3.27;2.77;;;;;;;;;;5058147;28;20373;-34
2023/06/05 01:50:57;;;;;;;2.93;2.60;;;;;;;;;;5055664;28;20227;-35
2023/06/05 01:53:24;;;;;;;2.47;2.27;;;;;;;;;;5053366;28;20210;-33
2023/06/05 01:55:53;;;;;;;3.13;2.10;;;;;;;;;;5053200;28;20226;-32
2023/06/05 01:58:21;;;;;;;2.33;2.10;;;;;;;;;;5048802;28;20206;-35
2023/06/05 02:00:48;;;;;;;3.00;2.20;;;;;;;;;;5072589;28;20209;-33
2023/06/05 02:03:16;;;;;;;2.07;1.87;;;;;;;;;;5050035;28;20208;-32
2023/06/05 02:05:43;;;;;;;2.10;1.90;;;;;;;;;;5062713;28;20771;-30
2023/06/05 02:08:12;;;;;;;2.47;2.27;;;;;;;;;;5073414;28;20209;-33
2023/06/05 02:10:43;;;;;;;3.33;2.20;;;;;;;;;;5073083;28;20692;-35
2023/06/05 02:13:12;;;;;;;2.50;2.30;;;;;;;;;;5036478;28;20231;-31
2023/06/05 02:15:41;;;;;;;2.33;2.13;;;;;;;;;;5065748;28;20226;-32
2023/06/05 02:18:08;;;;;;;3.17;2.40;;;;;;;;;;5050038;28;20203;-34
2023/06/05 02:20:36;;;;;;;2.47;2.00;;;;;;;;;;5058560;28;20214;-32
2023/06/05 02:23:05;;;;;;;2.60;2.40;;;;;;;;;;5052964;28;20206;-33
2023/06/05 02:25:32;;;;;;;3.00;2.40;;;;;;;;;;5048615;28;20226;-31
2023/06/05 02:27:59;;;;;;;3.63;2.27;;;;;;;;;;5044796;28;20225;-33
2023/06/05 02:30:28;;;;;;;3.77;2.80;;;;;;;;;;5068654;28;20501;-35
2023/06/05 02:32:56;;;;;;;2.80;2.27;;;;;;;;;;5051037;28;20211;-35
2023/06/05 02:35:23;;;;;;;3.20;2.30;;;;;;;;;;5057079;28;20209;-36
2023/06/05 02:37:51;;;;;;;2.30;2.17;;;;;;;;;;5052911;28;20210;-34
2023/06/05 02:40:18;;;;;;;2.70;2.03;;;;;;;;;;5049982;28;20202;-33
2023/06/05 02:42:45;;;;;;;4.13;2.00;;;;;;;;;;5051524;28;20547;-31
2023/06/05 02:45:12;;;;;;;2.40;2.20;;;;;;;;;;5063301;28;20201;-36
2023/06/05 02:47:41;;;;;;;3.00;2.17;;;;;;;;;;5050087;28;20211;-35
2023/06/05 02:50:08;;;;;;;4.20;2.00;;;;;;;;;;5060377;28;20202;-33
2023/06/05 02:52:38;;;;;;;4.40;2.50;;;;;;;;;;5069694;28;20251;-35
2023/06/05 02:55:07;;;;;;;2.47;2.27;;;;;;;;;;5065455;28;20324;-33
2023/06/05 02:57:35;;;;;;;4.13;2.00;;;;;;;;;;5040090;28;20274;-34
2023/06/05 03:00:07;;;;;;;2.03;1.93;;;;;;;;;;5056943;28;20257;-35
2023/06/05 03:02:36;;;;;;;2.27;1.97;;;;;;;;;;5046803;28;20210;-33
2023/06/05 03:05:04;;;;;;;2.43;2.20;;;;;;;;;;5061446;28;20221;-33
2023/06/05 03:07:33;;;;;;;3.93;2.20;;;;;;;;;;5068995;28;20204;-32
2023/06/05 03:10:01;;;;;;;2.70;2.10;;;;;;;;;;5071715;28;20210;-33
2023/06/05 03:12:28;;;;;;;2.10;1.90;;;;;;;;;;5053460;28;20222;-34
2023/06/05 03:14:55;;;;;;;2.30;2.10;;;;;;;;;;5050925;28;20201;-34
2023/06/05 03:17:24;;;;;;;2.10;1.90;;;;;;;;;;5052909;28;20237;-35
2023/06/05 03:19:51;;;;;;;2.40;2.20;;;;;;;;;;5056813;28;20241;-35
2023/06/05 03:22:20;;;;;;;2.77;2.50;;;;;;;;;;5066842;28;20201;-35
2023/06/05 03:24:47;;;;;;;3.03;1.90;;;;;;;;;;5062061;28;20207;-34
2023/06/05 03:27:14;;;;;;;3.20;2.10;;;;;;;;;;5053294;28;20232;-36
2023/06/05 03:29:41;;;;;;;2.37;2.17;;;;;;;;;;5051793;28;20207;-34
2023/06/05 03:32:10;;;;;;;3.70;2.77;;;;;;;;;;5047479;28;20238;-34
2023/06/05 03:34:38;;;;;;;3.87;2.47;;;;;;;;;;5063031;28;20219;-32
2023/06/05 03:37:05;;;;;;;3.10;2.60;;;;;;;;;;5058997;28;20317;-32
2023/06/05 03:39:34;;;;;;;2.77;2.33;;;;;;;;;;5051680;28;20206;-32
2023/06/05 03:42:02;;;;;;;2.80;2.30;;;;;;;;;;5059347;28;20202;-31
2023/06/05 03:44:29;;;;;;;5.27;2.40;;;;;;;;;;5060883;28;20217;-30
2023/06/05 03:46:56;;;;;;;2.93;2.20;;;;;;;;;;5063386;28;20234;-33
2023/06/05 03:49:25;;;;;;;2.07;1.97;;;;;;;;;;5065936;28;20259;-33
2023/06/05 03:51:52;;;;;;;2.37;2.17;;;;;;;;;;5060445;28;20224;-31
2023/06/05 03:54:20;;;;;;;2.50;2.30;;;;;;;;;;5052339;28;20264;-31
2023/06/05 03:56:50;;;;;;;2.30;2.10;;;;;;;;;;5040338;28;20238;-32
2023/06/05 03:59:21;;;;;;;5.70;2.10;;;;;;;;;;5052844;28;20202;-31
2023/06/05 04:01:48;;;;;;;2.03;1.80;;;;;;;;;;5061012;28;20289;-31
2023/06/05 04:04:16;;;;;;;2.47;2.00;;;;;;;;;;5049406;28;20317;-30
2023/06/05 04:06:43;;;;;;;2.43;1.97;;;;;;;;;;5061227;28;20230;-34
2023/06/05 04:09:12;;;;;;;2.20;2.00;;;;;;;;;;5053375;28;20217;-34
2023/06/05 04:11:39;;;;;;;2.13;1.93;;;;;;;;;;5042952;28;20653;-32
2023/06/05 04:14:07;;;;;;;2.80;2.27;;;;;;;;;;5065744;28;20205;-33
2023/06/05 04:16:38;;;;;;;3.77;2.07;;;;;;;;;;5066455;28;20225;-32
2023/06/05 04:19:06;;;;;;;3.40;2.30;;;;;;;;;;5045936;28;20588;-31
2023/06/05 04:21:34;;;;;;;4.17;2.37;;;;;;;;;;5052894;28;20224;-34
2023/06/05 04:24:01;;;;;;;3.20;2.57;;;;;;;;;;5052598;28;20210;-36
2023/06/05 04:26:28;;;;;;;3.33;2.63;;;;;;;;;;5049212;28;20696;-33
2023/06/05 04:28:56;;;;;;;2.60;2.40;;;;;;;;;;5058153;28;20205;-33
2023/06/05 04:31:25;;;;;;;3.70;2.50;;;;;;;;;;5053109;28;20784;-35
2023/06/05 04:33:52;;;;;;;4.33;2.20;;;;;;;;;;5060540;28;20205;-32
2023/06/05 04:36:20;;;;;;;2.47;2.00;;;;;;;;;;5071755;28;20217;-34
2023/06/05 04:38:47;;;;;;;2.00;1.90;;;;;;;;;;5071753;28;20205;-31
2023/06/05 04:41:14;;;;;;;4.33;2.20;;;;;;;;;;5058324;28;20203;-33
2023/06/05 04:43:42;;;;;;;5.10;2.33;;;;;;;;;;5052470;28;20207;-34
2023/06/05 04:46:09;;;;;;;2.60;2.27;;;;;;;;;;5053979;28;20233;-36
2023/06/05 04:48:38;;;;;;;12.73;10.83;;;;;;;;;;5038047;28;20210;-34
2023/06/05 04:51:05;;;;;;;3.60;2.57;;;;;;;;;;5064352;28;20293;-32
2023/06/05 04:53:32;;;;;;;5.33;2.57;;;;;;;;;;5070364;28;20205;-35
2023/06/05 04:56:01;;;;;;;5.17;2.47;;;;;;;;;;5067031;28;20232;-35
2023/06/05 04:58:28;;;;;;;3.00;2.10;;;;;;;;;;5048342;28;20260;-31
2023/06/05 05:01:04;;;;;;;5.13;2.60;;;;;;;;;;5308796;22;20226;-29
2023/06/05 05:03:31;;;;;;;3.47;2.30;;;;;;;;;;5062830;28;20202;-28
2023/06/05 05:06:00;;;;;;;2.67;2.47;;;;;;;;;;5063498;28;20221;-28
2023/06/05 05:08:28;;;;;;;3.67;2.27;;;;;;;;;;5072283;28;20202;-29
2023/06/05 05:10:55;;;;;;;3.43;2.73;;;;;;;;;;5070754;28;20254;-27
2023/06/05 05:13:23;;;;;;;5.87;2.93;;;;;;;;;;5061447;28;20201;-30
2023/06/05 05:15:52;;;;;;;2.93;2.47;;;;;;;;;;5059967;28;20220;-29
2023/06/05 05:18:20;;;;;;;5.37;3.00;;;;;;;;;;5057864;28;20203;-29
2023/06/05 05:20:47;;;;;;;3.17;2.87;;;;;;;;;;5053065;28;20209;-29
2023/06/05 05:23:17;;;;;;;5.30;3.63;;;;;;;;;;5070472;28;20247;-30
2023/06/05 05:25:44;;;;;;;3.87;2.90;;;;;;;;;;5068323;28;20226;-28
2023/06/05 05:28:11;;;;;;;4.80;3.40;;;;;;;;;;5065842;28;20205;-26
2023/06/05 05:30:38;;;;;;;3.43;2.80;;;;;;;;;;5059654;28;20202;-28
2023/06/05 05:33:05;;;;;;;4.53;3.00;;;;;;;;;;5055799;28;20225;-28
2023/06/05 05:35:32;;;;;;;4.63;3.70;;;;;;;;;;5070772;28;20234;-29
2023/06/05 05:37:59;;;;;;;4.23;3.27;;;;;;;;;;5071689;28;20293;-28
2023/06/05 05:40:28;;;;;;;5.40;3.43;;;;;;;;;;5071712;28;20209;-29
2023/06/05 05:42:55;;;;;;;3.40;3.10;;;;;;;;;;5062943;28;20194;-29
2023/06/05 05:45:22;;;;;;;4.17;3.77;;;;;;;;;;5063830;28;20198;-29
2023/06/05 05:47:49;;;;;;;3.93;3.10;;;;;;;;;;5057708;28;20209;-30
2023/06/05 05:50:16;;;;;;;4.03;3.03;;;;;;;;;;5069743;28;20282;-29
2023/06/05 05:52:44;;;;;;;5.83;3.43;;;;;;;;;;5074675;28;20218;-28
2023/06/05 05:55:12;;;;;;;6.13;3.20;;;;;;;;;;5070547;28;20203;-29
2023/06/05 05:57:40;;;;;;;5.77;3.90;;;;;;;;;;5063262;28;20204;-30
2023/06/05 06:00:12;;;;;;;4.13;3.20;;;;;;;;;;5067970;28;20234;-27
2023/06/05 06:02:39;;;;;;;6.30;3.43;;;;;;;;;;5066947;28;20211;-27
2023/06/05 06:05:06;;;;;;;5.67;3.90;;;;;;;;;;5073259;28;20239;-29
2023/06/05 06:07:34;;;;;;;3.37;3.03;;;;;;;;;;5074942;28;20254;-26
2023/06/05 06:10:01;;;;;;;7.20;3.80;;;;;;;;;;5072986;28;20217;-29
2023/06/05 06:12:29;;;;;;;4.33;3.73;;;;;;;;;;5055285;28;20708;-28
2023/06/05 06:14:57;;;;;;;6.33;3.50;;;;;;;;;;5058368;28;20297;-27
2023/06/05 06:17:24;;;;;;;4.67;3.10;;;;;;;;;;5063494;28;20232;-27
2023/06/05 06:19:52;;;;;;;3.83;3.20;;;;;;;;;;5068365;28;20216;-30
2023/06/05 06:22:20;;;;;;;4.37;3.13;;;;;;;;;;5074559;28;20242;-27
2023/06/05 06:24:48;;;;;;;4.97;3.30;;;;;;;;;;5074798;28;20212;-28
2023/06/05 06:27:15;;;;;;;4.30;3.10;;;;;;;;;;5068183;28;20227;-27
2023/06/05 06:29:48;;;;;;;3.03;2.50;;;;;;;;;;5064198;28;20213;-27
2023/06/05 06:32:17;;;;;;;2.80;2.53;;;;;;;;;;5054841;28;20223;-26
2023/06/05 06:34:44;;;;;;;3.40;2.57;;;;;;;;;;5063708;28;20208;-30
2023/06/05 06:37:11;;;;;;;4.63;2.87;;;;;;;;;;5068797;28;20224;-28
2023/06/05 06:39:39;;;;;;;3.80;2.63;;;;;;;;;;5068603;28;20208;-26
2023/06/05 06:42:06;;;;;;;4.43;3.00;;;;;;;;;;5060586;28;20237;-30
2023/06/05 06:44:33;;;;;;;4.53;3.13;;;;;;;;;;5062855;28;20208;-30
2023/06/05 06:47:00;;;;;;;3.23;2.90;;;;;;;;;;5071752;28;20221;-27
2023/06/05 06:49:29;;;;;;;3.73;2.63;;;;;;;;;;5053852;28;20213;-29
2023/06/05 06:51:56;;;;;;;4.00;2.80;;;;;;;;;;5065197;28;20217;-29
2023/06/05 06:54:25;;;;;;;3.33;2.47;;;;;;;;;;5070097;28;20331;-29
2023/06/05 06:56:52;;;;;;;4.47;3.03;;;;;;;;;;5064672;28;20312;-28
2023/06/05 06:59:20;;;;;;;4.80;2.63;;;;;;;;;;5067023;28;20203;-28
2023/06/05 07:01:47;;;;;;;5.13;3.13;;;;;;;;;;5052666;28;20220;-30
2023/06/05 07:04:16;;;;;;;3.00;2.50;;;;;;;;;;5062089;28;20208;-28
2023/06/05 07:06:45;;;;;;;3.10;2.47;;;;;;;;;;5053872;28;20233;-28
2023/06/05 07:09:12;;;;;;;3.53;2.97;;;;;;;;;;5053979;28;20226;-29
2023/06/05 07:11:40;;;;;;;5.07;3.30;;;;;;;;;;5053443;28;20206;-28
2023/06/05 07:14:08;;;;;;;3.42;3.10;;;;;;;;;;5053232;28;20206;-26
2023/06/05 07:16:35;;;;;;;5.75;2.67;;;;;;;;;;5064690;28;20280;-29
2023/06/05 07:19:03;;;;;;;4.10;3.13;;;;;;;;;;5057849;28;20201;-30
2023/06/05 07:21:30;;;;;;;2.80;2.45;;;;;;;;;;5064454;28;20229;-29
2023/06/05 07:23:59;;;;;;;3.00;2.70;;;;;;;;;;5073371;28;20201;-28
2023/06/05 07:26:27;;;;;;;2.75;2.45;;;;;;;;;;5061004;28;20275;-29
2023/06/05 07:28:54;;;;;;;3.97;2.70;;;;;;;;;;5065220;28;20255;-29
2023/06/05 07:31:22;;;;;;;3.08;2.85;;;;;;;;;;5069570;28;20218;-30
2023/06/05 07:33:49;;;;;;;2.75;2.42;;;;;;;;;;5064647;28;20230;-30
2023/06/05 07:36:16;;;;;;;3.60;3.28;;;;;;;;;;5073001;28;20225;-30
2023/06/05 07:38:43;;;;;;;3.20;2.90;;;;;;;;;;5073392;28;20211;-29
2023/06/05 07:41:12;;;;;;;3.35;3.05;;;;;;;;;;5065757;28;20209;-28
2023/06/05 07:43:41;;;;;;;4.10;2.67;;;;;;;;;;5064587;28;20295;-30
2023/06/05 07:46:09;;;;;;;3.35;2.85;;;;;;;;;;5069417;28;20256;-30
2023/06/05 07:48:37;;;;;;;4.13;3.08;;;;;;;;;;5064477;28;20208;-27
2023/06/05 07:51:04;;;;;;;3.00;2.58;;;;;;;;;;5066523;28;20208;-28
2023/06/05 07:53:31;;;;;;;4.90;2.85;;;;;;;;;;5072816;28;20230;-30
2023/06/05 07:55:58;;;;;;;5.55;3.10;;;;;;;;;;5061593;28;20224;-29
2023/06/05 07:58:27;;;;;;;3.00;2.70;;;;;;;;;;5064280;28;20239;-30
2023/06/05 08:00:54;;;;;;;4.35;3.00;;;;;;;;;;5053202;28;20209;-30
2023/06/05 08:03:21;;;;;;;5.40;3.17;;;;;;;;;;5057773;28;20214;-26
2023/06/05 08:05:49;;;;;;;5.10;2.95;;;;;;;;;;5052387;28;20234;-27
2023/06/05 08:08:16;;;;;;;4.07;3.40;;;;;;;;;;5052853;28;20663;-28
2023/06/05 08:10:43;;;;;;;3.97;3.40;;;;;;;;;;5065446;28;20219;-26
2023/06/05 08:13:10;;;;;;;3.88;3.15;;;;;;;;;;5052589;28;20224;-26
2023/06/05 08:15:38;;;;;;;6.25;3.20;;;;;;;;;;5070242;28;20229;-27
2023/06/05 08:18:06;;;;;;;4.20;3.25;;;;;;;;;;5056797;28;20208;-29
2023/06/05 08:20:33;;;;;;;4.03;3.17;;;;;;;;;;5059289;28;20204;-31
2023/06/05 08:23:00;;;;;;;5.55;3.95;;;;;;;;;;5051194;28;20295;-27
2023/06/05 08:25:27;;;;;;;4.75;3.72;;;;;;;;;;5050487;28;20282;-28
2023/06/05 08:27:56;;;;;;;6.80;3.70;;;;;;;;;;5051988;28;20207;-25
2023/06/05 08:30:24;;;;;;;8.63;4.32;;;;;;;;;;5059098;28;20209;-27
2023/06/05 08:32:52;;;;;;;4.97;3.95;;;;;;;;;;5053498;28;20221;-31
2023/06/05 08:35:19;;;;;;;5.15;3.17;;;;;;;;;;5058510;28;20211;-28
2023/06/05 08:37:46;;;;;;;4.78;3.47;;;;;;;;;;5069510;28;20204;-29
2023/06/05 08:40:13;;;;;;;5.18;3.58;;;;;;;;;;5071004;28;20217;-30
2023/06/05 08:42:41;;;;;;;4.25;3.83;;;;;;;;;;5064933;28;20213;-27
2023/06/05 08:45:09;;;;;;;3.90;3.13;;;;;;;;;;5064143;28;20206;-29
2023/06/05 08:47:37;;;;;;;5.85;3.28;;;;;;;;;;5055972;28;20220;-28
2023/06/05 08:50:08;;;;;;;8.63;3.65;;;;;;;;;;5060246;28;20220;-25
2023/06/05 08:52:35;;;;;;;4.22;3.33;;;;;;;;;;5069142;28;20237;-28
2023/06/05 08:55:03;;;;;;;5.35;3.30;;;;;;;;;;5063614;28;20204;-31
2023/06/05 08:57:30;;;;;;;5.45;3.33;;;;;;;;;;5060003;28;20212;-28
2023/06/05 08:59:59;;;;;;;4.35;3.22;;;;;;;;;;5052702;28;20216;-29
2023/06/05 09:02:26;;;;;;;4.90;3.40;;;;;;;;;;5052957;28;20211;-30
2023/06/05 09:04:53;;;;;;;5.53;3.20;;;;;;;;;;5068080;28;20212;-27
2023/06/05 09:07:21;;;;;;;5.65;3.45;;;;;;;;;;5067134;28;20220;-30
2023/06/05 09:09:48;;;;;;;6.13;3.78;;;;;;;;;;5071880;28;20199;-30
2023/06/05 09:12:17;;;;;;;3.20;2.90;;;;;;;;;;5068493;28;20215;-26
2023/06/05 09:14:44;;;;;;;3.85;3.55;;;;;;;;;;5063198;28;20214;-28
2023/06/05 09:17:13;;;;;;;4.25;3.38;;;;;;;;;;5060027;28;20316;-26
2023/06/05 09:19:42;;;;;;;5.03;3.67;;;;;;;;;;5053585;28;20295;-29
2023/06/05 09:22:10;;;;;;;4.45;3.28;;;;;;;;;;5056545;28;20632;-29
2023/06/05 09:24:40;;;;;;;3.40;3.03;;;;;;;;;;5050927;28;20357;-31
2023/06/05 09:27:08;;;;;;;3.90;3.20;;;;;;;;;;5065381;28;20239;-28
2023/06/05 09:29:36;;;;;;;4.35;3.10;;;;;;;;;;5058933;28;20213;-30
2023/06/05 09:32:04;;;;;;;5.50;3.17;;;;;;;;;;5054702;28;20239;-29
2023/06/05 09:34:32;;;;;;;7.15;3.30;;;;;;;;;;5060301;28;20233;-27
2023/06/05 09:37:00;;;;;;;5.05;3.13;;;;;;;;;;5075009;28;20223;-30
2023/06/05 09:39:27;;;;;;;4.40;2.97;;;;;;;;;;5075732;28;20208;-31
2023/06/05 09:41:56;;;;;;;6.25;3.35;;;;;;;;;;5064522;28;20203;-31
2023/06/05 09:44:24;;;;;;;4.63;3.20;;;;;;;;;;5070683;28;20261;-27
2023/06/05 09:46:52;;;;;;;8.15;3.67;;;;;;;;;;5056117;28;20231;-28
2023/06/05 09:49:20;;;;;;;4.78;3.40;;;;;;;;;;5059061;28;20260;-26
2023/06/05 09:51:47;;;;;;;6.07;3.67;;;;;;;;;;5063285;28;20214;-28
2023/06/05 09:54:15;;;;;;;4.05;3.13;;;;;;;;;;5054770;28;20231;-28
2023/06/05 09:56:42;;;;;;;7.13;3.15;;;;;;;;;;5058226;28;20231;-31
2023/06/05 09:59:15;;;;;;;5.25;3.03;;;;;;;;;;5069523;28;20204;-28
2023/06/05 10:01:43;;;;;;;3.83;2.90;;;;;;;;;;5066704;28;20555;-26
2023/06/05 10:04:11;;;;;;;6.38;3.25;;;;;;;;;;5065383;28;20230;-30
2023/06/05 10:06:38;;;;;;;4.03;3.20;;;;;;;;;;5064907;28;20259;-30
2023/06/05 10:09:05;;;;;;;3.03;2.78;;;;;;;;;;5053950;28;20231;-32
2023/06/05 10:11:33;;;;;;;3.53;2.85;;;;;;;;;;5056903;28;20230;-29
2023/06/05 10:14:01;;;;;;;3.13;2.72;;;;;;;;;;5069484;28;20273;-26
2023/06/05 10:16:29;;;;;;;5.60;3.03;;;;;;;;;;5052066;28;20617;-27
2023/06/05 10:18:57;;;;;;;4.65;2.70;;;;;;;;;;5060661;28;20212;-28
2023/06/05 10:21:28;;;;;;;6.50;3.28;;;;;;;;;;5068600;28;20233;-30
2023/06/05 10:23:57;;;;;;;4.20;3.40;;;;;;;;;;5072639;28;20210;-28
2023/06/05 10:26:33;;;;;;;3.03;2.80;;;;;;;;;;5060876;28;20290;-30
2023/06/05 10:29:09;;;;;;;4.25;3.00;;;;;;;;;;5056237;28;20211;-29
2023/06/05 10:31:41;;;;;;;3.40;3.10;;;;;;;;;;5064957;28;20205;-27
2023/06/05 10:34:20;;;;;;;3.42;3.08;;;;;;;;;;5054734;28;20232;-29
2023/06/05 10:37:07;;;;;;;5.05;3.38;;;;;;;;;;5070289;28;20228;-28
2023/06/05 10:39:34;;;;;;;3.25;2.65;;;;;;;;;;5072871;28;20187;-29
2023/06/05 10:42:02;;;;;;;4.20;3.28;;;;;;;;;;5056226;28;20420;-27
2023/06/05 10:44:41;;;;;;;3.30;3.00;;;;;;;;;;5059765;28;20203;-29
2023/06/05 10:47:32;;;;;;;4.50;2.92;;;;;;;;;;5066204;28;20222;-29
2023/06/05 10:50:19;;;;;;;3.72;3.10;;;;;;;;;;5036854;28;20215;-30
2023/06/05 10:52:47;;;;;;;2.67;2.47;;;;;;;;;;5051630;28;20246;-28
2023/06/05 10:55:15;;;;;;;4.13;3.15;;;;;;;;;;5053274;28;20210;-29
2023/06/05 10:57:58;;;;;;;6.20;3.33;;;;;;;;;;5063858;28;20222;-28
2023/06/05 11:00:25;;;;;;;3.83;3.28;;;;;;;;;;5141327;22;20235;-26
2023/06/05 11:02:53;;;;;;;4.25;3.50;;;;;;;;;;5046286;28;20208;-27
2023/06/05 11:05:20;;;;;;;4.00;3.35;;;;;;;;;;5053889;28;20620;-28
2023/06/05 11:07:49;;;;;;;3.13;2.80;;;;;;;;;;5054847;28;20211;-25
2023/06/05 11:10:20;;;;;;;4.43;3.53;;;;;;;;;;5049416;28;20208;-27
2023/06/05 11:13:05;;;;;;;4.82;3.03;;;;;;;;;;5054194;28;20207;-25
2023/06/05 11:15:39;;;;;;;5.97;2.80;;;;;;;;;;5054107;28;20231;-29
2023/06/05 11:18:25;;;;;;;3.63;3.25;;;;;;;;;;5046203;28;20207;-25
2023/06/05 11:20:53;;;;;;;4.07;3.15;;;;;;;;;;5053551;28;20203;-27
2023/06/05 11:23:24;;;;;;;4.18;3.60;;;;;;;;;;5054142;28;20571;-26
2023/06/05 11:25:51;;;;;;;3.50;3.05;;;;;;;;;;5041968;28;20249;-27
2023/06/05 11:28:33;;;;;;;3.75;2.90;;;;;;;;;;5041935;28;20216;-29
2023/06/05 11:31:00;;;;;;;3.75;3.40;;;;;;;;;;5046739;28;20211;-27
2023/06/05 11:33:30;;;;;;;3.75;3.17;;;;;;;;;;5041792;28;20225;-24
2023/06/05 11:36:01;;;;;;;3.15;2.85;;;;;;;;;;5045026;28;20227;-28
2023/06/05 11:38:30;;;;;;;3.53;3.08;;;;;;;;;;5054438;28;20195;-26
2023/06/05 11:40:57;;;;;;;4.00;3.17;;;;;;;;;;5051173;28;20211;-26
2023/06/05 11:43:24;;;;;;;5.05;2.88;;;;;;;;;;5053929;28;20206;-27
2023/06/05 11:45:52;;;;;;;3.72;2.70;;;;;;;;;;5053984;28;20235;-26
2023/06/05 11:48:20;;;;;;;5.32;3.03;;;;;;;;;;5042755;28;20268;-27
2023/06/05 11:51:00;;;;;;;3.33;2.88;;;;;;;;;;5048604;28;20204;-28
2023/06/05 11:53:27;;;;;;;3.65;3.08;;;;;;;;;;5049587;28;20214;-26
2023/06/05 11:56:06;;;;;;;4.40;4.00;;;;;;;;;;5053203;28;20230;-26
2023/06/05 11:58:36;;;;;;;3.40;3.10;;;;;;;;;;5053890;28;20190;-27
2023/06/05 12:01:07;;;;;;;4.18;3.05;;;;;;;;;;5046072;28;20714;-28
2023/06/05 12:03:35;;;;;;;3.65;3.10;;;;;;;;;;5045359;28;20204;-26
2023/06/05 12:06:03;;;;;;;4.93;3.30;;;;;;;;;;5053213;28;20230;-28
2023/06/05 12:08:32;;;;;;;4.70;3.10;;;;;;;;;;5053454;28;20211;-27
2023/06/05 12:11:01;;;;;;;3.80;3.45;;;;;;;;;;5044039;28;20205;-27
2023/06/05 12:13:47;;;;;;;4.80;3.13;;;;;;;;;;5042413;28;20258;-27
2023/06/05 12:16:14;;;;;;;3.70;2.70;;;;;;;;;;5048074;28;20315;-25
2023/06/05 12:18:42;;;;;;;3.25;2.95;;;;;;;;;;5047486;28;20213;-30
2023/06/05 12:21:20;;;;;;;2.78;2.53;;;;;;;;;;5051966;28;20207;-30
2023/06/05 12:23:47;;;;;;;6.68;3.00;;;;;;;;;;5053235;28;20183;-27
2023/06/05 12:26:16;;;;;;;3.55;3.00;;;;;;;;;;5044869;28;20236;-25
2023/06/05 12:28:44;;;;;;;3.80;3.10;;;;;;;;;;5042136;28;20224;-27
2023/06/05 12:31:11;;;;;;;3.92;2.92;;;;;;;;;;5050293;28;20218;-28
2023/06/05 12:33:48;;;;;;;5.13;3.45;;;;;;;;;;5040772;28;20228;-28
2023/06/05 12:36:16;;;;;;;3.88;3.05;;;;;;;;;;5052653;28;20277;-27
2023/06/05 12:38:44;;;;;;;3.25;2.70;;;;;;;;;;5052560;28;20215;-26
2023/06/05 12:41:11;;;;;;;3.47;3.10;;;;;;;;;;5039332;28;20281;-28
2023/06/05 12:43:40;;;;;;;7.70;2.83;;;;;;;;;;5049772;28;20205;-28
2023/06/05 12:46:09;;;;;;;4.30;3.22;;;;;;;;;;5051088;28;20225;-28
2023/06/05 12:48:39;;;;;;;3.60;3.17;;;;;;;;;;5039389;28;20204;-27
2023/06/05 12:51:07;;;;;;;4.88;3.17;;;;;;;;;;5052689;28;20196;-28
2023/06/05 12:53:34;;;;;;;3.92;3.53;;;;;;;;;;5052382;28;20208;-27
2023/06/05 12:56:01;;;;;;;4.72;3.13;;;;;;;;;;5045414;28;20224;-26
2023/06/05 12:58:28;;;;;;;3.58;3.20;;;;;;;;;;5046520;28;20207;-27
2023/06/05 13:00:56;;;;;;;5.05;2.90;;;;;;;;;;5051641;28;20223;-26
2023/06/05 13:03:24;;;;;;;3.72;3.17;;;;;;;;;;5043978;28;20299;-26
2023/06/05 13:05:51;;;;;;;3.30;3.00;;;;;;;;;;5051830;28;20309;-27
2023/06/05 13:08:19;;;;;;;3.42;2.90;;;;;;;;;;5052550;28;20216;-27
2023/06/05 13:10:46;;;;;;;3.75;3.13;;;;;;;;;;5052703;28;20209;-26
2023/06/05 13:13:14;;;;;;;4.32;3.45;;;;;;;;;;5042357;28;20205;-26
2023/06/05 13:15:41;;;;;;;4.80;3.30;;;;;;;;;;5051392;28;20239;-28
2023/06/05 13:18:10;;;;;;;6.32;3.63;;;;;;;;;;5040129;28;20743;-29
2023/06/05 13:20:37;;;;;;;5.28;3.42;;;;;;;;;;5051007;28;20209;-26
2023/06/05 13:23:06;;;;;;;5.00;3.13;;;;;;;;;;5052417;28;20216;-27
2023/06/05 13:25:33;;;;;;;4.45;3.35;;;;;;;;;;5040893;28;20224;-25
2023/06/05 13:28:00;;;;;;;3.42;3.13;;;;;;;;;;5049000;28;20212;-25
2023/06/05 13:30:28;;;;;;;3.70;3.30;;;;;;;;;;5038613;28;20251;-27
2023/06/05 13:33:14;;;;;;;5.03;2.95;;;;;;;;;;5037754;28;20211;-27
2023/06/05 13:35:41;;;;;;;3.65;2.50;;;;;;;;;;5039405;28;20231;-28
2023/06/05 13:38:09;;;;;;;3.42;3.10;;;;;;;;;;5031314;28;20247;-28
2023/06/05 13:40:36;;;;;;;5.97;3.25;;;;;;;;;;5031855;28;20208;-27
2023/06/05 13:43:03;;;;;;;6.10;3.60;;;;;;;;;;5049962;28;20209;-27
2023/06/05 13:45:30;;;;;;;4.82;3.63;;;;;;;;;;5049814;28;20228;-26
2023/06/05 13:47:57;;;;;;;11.68;3.78;;;;;;;;;;5045487;28;20219;-26
2023/06/05 13:50:26;;;;;;;4.55;3.25;;;;;;;;;;5049719;28;20209;-28
2023/06/05 13:52:57;;;;;;;5.45;3.38;;;;;;;;;;5030070;28;20206;-27
2023/06/05 13:55:24;;;;;;;4.22;3.28;;;;;;;;;;5030677;28;20213;-26
2023/06/05 13:57:51;;;;;;;5.15;2.90;;;;;;;;;;5049673;28;20215;-27
2023/06/05 14:00:19;;;;;;;3.78;3.40;;;;;;;;;;5049943;28;20743;-28
2023/06/05 14:02:47;;;;;;;3.78;3.45;;;;;;;;;;5041814;28;20249;-26
2023/06/05 14:05:15;;;;;;;5.00;3.80;;;;;;;;;;5051458;28;20209;-26
2023/06/05 14:07:43;;;;;;;3.95;3.33;;;;;;;;;;5050867;28;20268;-30
2023/06/05 14:10:10;;;;;;;5.25;3.70;;;;;;;;;;5048898;28;20216;-26
2023/06/05 14:12:37;;;;;;;4.72;3.20;;;;;;;;;;5043066;28;20214;-27
2023/06/05 14:15:05;;;;;;;4.80;3.35;;;;;;;;;;5053195;28;20223;-26
2023/06/05 14:17:32;;;;;;;3.75;3.30;;;;;;;;;;5049117;28;20616;-26
2023/06/05 14:20:00;;;;;;;3.72;3.03;;;;;;;;;;5047536;28;20231;-31
2023/06/05 14:22:27;;;;;;;7.32;3.60;;;;;;;;;;5045709;28;20206;-27
2023/06/05 14:24:56;;;;;;;4.13;3.05;;;;;;;;;;5040129;28;20197;-25
2023/06/05 14:27:23;;;;;;;3.38;3.08;;;;;;;;;;5048516;28;20231;-26
2023/06/05 14:29:50;;;;;;;3.05;2.75;;;;;;;;;;5032677;28;20213;-27
2023/06/05 14:32:17;;;;;;;3.60;2.97;;;;;;;;;;5035384;28;20212;-26
2023/06/05 14:34:44;;;;;;;4.43;2.90;;;;;;;;;;5049764;28;20438;-26
2023/06/05 14:37:11;;;;;;;3.97;3.08;;;;;;;;;;5051874;28;20225;-25
2023/06/05 14:39:38;;;;;;;3.40;3.10;;;;;;;;;;5048830;28;20211;-23
2023/06/05 14:42:07;;;;;;;4.13;3.20;;;;;;;;;;5044168;28;20834;-27
2023/06/05 14:44:34;;;;;;;3.65;3.28;;;;;;;;;;5051272;28;20206;-26
2023/06/05 14:47:01;;;;;;;3.47;3.15;;;;;;;;;;5042678;28;20227;-26
2023/06/05 14:49:29;;;;;;;3.92;2.90;;;;;;;;;;5051311;28;20213;-23
2023/06/05 14:51:57;;;;;;;3.90;3.30;;;;;;;;;;5051600;28;20205;-24